createdAt,value
2022-10-22T00:01:09.385Z,9.23
2022-10-22T00:03:37.862Z,9.13
2022-10-22T00:06:38.603Z,8.73
2022-10-22T00:09:08.554Z,6.83
2022-10-22T00:11:38.933Z,11.03
2022-10-22T00:15:10.068Z,8.13
2022-10-22T00:17:39.754Z,11.20
2022-10-22T00:20:11.272Z,7.23
2022-10-22T00:22:41.046Z,11.17
2022-10-22T00:25:10.076Z,9.33
2022-10-22T00:31:28.229Z,6.50
2022-10-22T00:34:16.457Z,8.77
2022-10-22T00:40:49.936Z,8.10
2022-10-22T00:43:20.497Z,9.87
2022-10-22T00:45:51.111Z,10.40
2022-10-22T00:52:10.776Z,10.27
2022-10-22T00:59:31.174Z,14.93
2022-10-22T01:01:59.578Z,5.17
2022-10-22T01:08:42.102Z,10.63
2022-10-22T01:11:28.704Z,7.23
2022-10-22T01:17:49.262Z,7.30
2022-10-22T01:20:44.214Z,4.63
2022-10-22T01:23:26.560Z,8.40
2022-10-22T01:26:04.274Z,7.60
2022-10-22T01:29:08.320Z,11.33
2022-10-22T01:32:17.986Z,8.23
2022-10-22T01:34:55.683Z,9.63
2022-10-22T01:37:29.710Z,6.33
2022-10-22T01:40:06.402Z,11.80
2022-10-22T01:42:34.748Z,13.70
2022-10-22T01:45:14.892Z,11.70
2022-10-22T01:47:54.605Z,10.13
2022-10-22T01:54:53.479Z,9.10
2022-10-22T01:57:45.275Z,9.17
2022-10-22T02:00:56.638Z,8.03
2022-10-22T02:04:17.833Z,7.53
2022-10-22T02:06:48.817Z,8.80
2022-10-22T02:09:22.914Z,11.67
2022-10-22T02:11:53.382Z,7.87
2022-10-22T02:15:27.788Z,7.87
2022-10-22T02:18:17.865Z,7.43
2022-10-22T02:21:17.497Z,13.10
2022-10-22T02:28:30.599Z,6.87
2022-10-22T02:34:57.916Z,5.10
2022-10-22T02:42:04.709Z,9.23
2022-10-22T02:45:02.289Z,6.20
2022-10-22T02:47:33.547Z,12.17
2022-10-22T02:50:05.460Z,8.07
2022-10-22T02:57:18.538Z,7.53
2022-10-22T02:59:46.719Z,7.07
2022-10-22T03:02:15.293Z,18.07
2022-10-22T03:05:10.622Z,5.93
2022-10-22T03:07:39.227Z,3.63
2022-10-22T03:10:12.040Z,7.97
2022-10-22T03:16:39.102Z,8.23
2022-10-22T03:19:11.762Z,5.67
2022-10-22T03:22:18.925Z,7.83
2022-10-22T03:25:20.012Z,16.40
2022-10-22T03:28:27.167Z,10.33
2022-10-22T03:31:01.054Z,7.77
2022-10-22T03:33:29.514Z,10.97
2022-10-22T03:40:31.989Z,10.53
2022-10-22T03:44:02.676Z,10.20
2022-10-22T03:50:27.145Z,10.20
2022-10-22T03:53:21.276Z,6.07
2022-10-22T03:55:52.453Z,7.87
2022-10-22T03:58:20.620Z,7.17
2022-10-22T04:01:50.812Z,11.37
2022-10-22T04:04:28.475Z,6.27
2022-10-22T04:06:59.156Z,8.07
2022-10-22T04:10:09.953Z,11.07
2022-10-22T04:12:41.916Z,6.53
2022-10-22T04:15:47.566Z,6.33
2022-10-22T04:18:18.831Z,6.57
2022-10-22T04:21:25.254Z,11.27
2022-10-22T04:23:57.898Z,13.77
2022-10-22T04:27:06.954Z,9.37
2022-10-22T04:30:26.141Z,8.47
2022-10-22T04:33:01.234Z,3.90
2022-10-22T04:35:30.234Z,10.80
2022-10-22T04:37:58.553Z,9.67
2022-10-22T04:40:30.675Z,6.43
2022-10-22T04:43:00.297Z,9.43
2022-10-22T04:45:30.922Z,6.47
2022-10-22T04:49:00.958Z,11.43
2022-10-22T04:52:06.512Z,14.07
2022-10-22T04:55:43.887Z,12.57
2022-10-22T05:02:33.782Z,6.43
2022-10-22T05:05:03.872Z,6.50
2022-10-22T05:08:14.241Z,8.57
2022-10-22T05:10:46.844Z,11.27
2022-10-22T05:13:34.313Z,11.57
2022-10-22T05:16:03.172Z,8.10
2022-10-22T05:18:34.896Z,8.70
2022-10-22T05:21:31.718Z,13.80
2022-10-22T05:24:18.410Z,11.67
2022-10-22T05:27:16.486Z,8.37
2022-10-22T05:30:05.987Z,6.70
2022-10-22T05:37:02.077Z,7.13
2022-10-22T05:39:34.602Z,10.90
2022-10-22T05:42:04.043Z,9.47
2022-10-22T05:45:33.661Z,6.97
2022-10-22T05:52:41.345Z,9.13
2022-10-22T05:55:09.965Z,9.37
2022-10-22T05:58:20.128Z,7.30
2022-10-22T06:00:55.156Z,7.27
2022-10-22T06:03:23.722Z,10.03
2022-10-22T06:05:57.852Z,12.23
2022-10-22T06:09:32.945Z,11.97
2022-10-22T06:12:23.066Z,10.67
2022-10-22T06:14:52.610Z,4.50
2022-10-22T06:17:21.242Z,11.40
2022-10-22T06:19:49.515Z,10.23
2022-10-22T06:22:37.757Z,5.80
2022-10-22T06:29:46.507Z,7.53
2022-10-22T06:32:14.691Z,7.50
2022-10-22T06:38:39.399Z,6.63
2022-10-22T06:41:33.688Z,13.27
2022-10-22T06:48:44.198Z,9.70
2022-10-22T06:51:13.641Z,11.70
2022-10-22T06:58:26.817Z,13.43
2022-10-22T07:02:03.462Z,8.20
2022-10-22T07:04:38.325Z,9.23
2022-10-22T07:07:09.505Z,8.40
2022-10-22T07:09:39.611Z,15.07
2022-10-22T07:12:10.274Z,16.87
2022-10-22T07:15:31.560Z,16.90
2022-10-22T07:18:50.792Z,20.17
2022-10-22T07:21:47.628Z,10.23
2022-10-22T07:24:35.608Z,7.97
2022-10-22T07:27:32.020Z,6.13
2022-10-22T07:30:38.551Z,11.27
2022-10-22T07:33:37.375Z,8.00
2022-10-22T07:40:52.225Z,7.83
2022-10-22T07:43:20.752Z,10.17
2022-10-22T07:46:50.642Z,3.33
2022-10-22T07:49:18.947Z,9.47
2022-10-22T07:51:48.144Z,10.53
2022-10-22T07:58:14.428Z,8.80
2022-10-22T08:04:43.956Z,12.40
2022-10-22T08:11:07.809Z,6.27
2022-10-22T08:14:46.749Z,4.30
2022-10-22T08:17:16.817Z,7.90
2022-10-22T08:20:48.682Z,8.97
2022-10-22T08:23:17.159Z,9.03
2022-10-22T08:25:47.514Z,9.87
2022-10-22T08:32:36.084Z,6.30
2022-10-22T08:39:00.068Z,10.30
2022-10-22T08:41:35.282Z,8.27
2022-10-22T08:44:38.743Z,7.17
2022-10-22T08:51:14.254Z,7.10
2022-10-22T08:54:19.930Z,6.87
2022-10-22T08:57:21.011Z,7.17
2022-10-22T08:59:58.344Z,10.60
2022-10-22T09:02:39.522Z,9.13
2022-10-22T09:05:47.489Z,9.03
2022-10-22T09:12:20.498Z,5.33
2022-10-22T09:18:48.765Z,5.80
2022-10-22T09:22:09.721Z,8.50
2022-10-22T09:24:46.701Z,7.13
2022-10-22T09:28:16.791Z,9.47
2022-10-22T09:30:46.847Z,8.47
2022-10-22T09:33:27.053Z,10.13
2022-10-22T09:36:15.189Z,8.10
2022-10-22T09:38:49.651Z,4.90
2022-10-22T09:46:17.075Z,8.33
2022-10-22T09:48:52.880Z,7.20
2022-10-22T09:51:23.249Z,7.70
2022-10-22T09:53:59.186Z,9.87
2022-10-22T09:56:29.295Z,6.63
2022-10-22T09:58:59.160Z,6.97
2022-10-22T10:02:38.291Z,8.53
2022-10-22T10:05:19.439Z,6.07
2022-10-22T10:12:21.764Z,6.40
2022-10-22T10:14:57.005Z,12.40
2022-10-22T10:17:32.299Z,5.63
2022-10-22T10:20:40.974Z,9.40
2022-10-22T10:23:21.820Z,6.03
2022-10-22T10:26:54.681Z,8.60
2022-10-22T10:29:50.695Z,5.77
2022-10-22T10:32:38.962Z,7.40
2022-10-22T10:35:28.017Z,7.67
2022-10-22T10:38:09.798Z,5.77
2022-10-22T10:41:17.581Z,8.67
2022-10-22T10:44:15.293Z,8.03
2022-10-22T10:47:21.737Z,10.00
2022-10-22T10:49:55.226Z,8.27
2022-10-22T10:52:31.578Z,6.03
2022-10-22T10:55:20.008Z,7.83
2022-10-22T10:57:57.039Z,9.13
2022-10-22T11:00:36.281Z,6.30
2022-10-22T11:03:31.551Z,10.37
2022-10-22T11:06:01.190Z,7.33
2022-10-22T11:08:54.829Z,14.23
2022-10-22T11:15:13.619Z,4.03
2022-10-22T11:18:23.038Z,7.57
2022-10-22T11:21:19.119Z,5.57
2022-10-22T11:28:21.338Z,5.63
2022-10-22T11:30:58.298Z,4.57
2022-10-22T11:33:32.475Z,10.57
2022-10-22T11:39:00.166Z,6.53
2022-10-22T11:45:33.193Z,12.10
2022-10-22T11:48:16.242Z,6.13
2022-10-22T11:51:00.203Z,10.43
2022-10-22T11:53:34.216Z,5.27
2022-10-22T11:56:25.496Z,8.20
2022-10-22T11:59:32.153Z,6.07
2022-10-22T12:02:46.728Z,3.83
2022-10-22T12:05:45.515Z,6.00
2022-10-22T12:08:25.864Z,5.33
2022-10-22T12:11:21.685Z,5.47
2022-10-22T12:14:02.727Z,7.70
2022-10-22T12:17:11.947Z,5.37
2022-10-22T12:19:44.452Z,9.37
2022-10-22T12:22:50.643Z,6.40
2022-10-22T12:25:23.711Z,6.87
2022-10-22T12:28:55.706Z,4.60
2022-10-22T12:31:46.560Z,5.87
2022-10-22T12:38:24.093Z,7.20
2022-10-22T12:40:56.533Z,8.27
2022-10-22T12:43:29.910Z,9.67
2022-10-22T12:45:59.977Z,7.73
2022-10-22T12:48:34.766Z,2.67
2022-10-22T12:55:39.475Z,3.40
2022-10-22T12:58:11.272Z,7.07
2022-10-22T13:01:02.175Z,4.40
2022-10-22T13:03:35.543Z,3.80
2022-10-22T13:06:41.300Z,3.50
2022-10-22T13:09:16.626Z,3.03
2022-10-22T13:11:58.380Z,4.37
2022-10-22T13:14:30.596Z,4.57
2022-10-22T13:17:07.874Z,4.77
2022-10-22T13:19:50.292Z,4.07
2022-10-22T13:22:35.127Z,4.27
2022-10-22T13:25:55.762Z,5.13
2022-10-22T13:28:30.251Z,4.90
2022-10-22T13:31:40.055Z,6.00
2022-10-22T13:34:11.953Z,4.87
2022-10-22T13:36:44.407Z,6.77
2022-10-22T13:39:41.465Z,4.83
2022-10-22T13:42:13.473Z,2.30
2022-10-22T13:44:41.792Z,5.07
2022-10-22T13:47:24.965Z,5.70
2022-10-22T13:52:37.935Z,7.03
2022-10-22T13:55:15.089Z,4.47
2022-10-22T13:58:07.932Z,7.90
2022-10-22T14:00:39.475Z,6.67
2022-10-22T14:03:13.974Z,4.40
2022-10-22T14:05:42.740Z,6.20
2022-10-22T14:08:13.739Z,6.50
2022-10-22T14:11:01.465Z,8.83
2022-10-22T14:13:30.623Z,9.47
2022-10-22T14:20:39.261Z,6.93
2022-10-22T14:25:52.477Z,5.53
2022-10-22T14:28:25.040Z,6.27
2022-10-22T14:30:54.019Z,11.33
2022-10-22T14:33:32.096Z,7.77
2022-10-22T14:36:21.331Z,7.73
2022-10-22T14:38:53.859Z,7.17
2022-10-22T14:41:24.234Z,12.07
2022-10-22T14:43:59.961Z,6.27
2022-10-22T14:46:30.250Z,7.50
2022-10-22T14:48:58.421Z,6.93
2022-10-22T14:51:26.832Z,4.83
2022-10-22T14:54:18.659Z,7.83
2022-10-22T14:56:49.253Z,9.27
2022-10-22T15:03:30.551Z,9.23
2022-10-22T15:06:01.081Z,5.33
2022-10-22T15:09:27.927Z,5.70
2022-10-22T15:11:57.791Z,3.80
2022-10-22T15:14:30.088Z,3.13
2022-10-22T15:16:58.663Z,4.83
2022-10-22T15:20:08.759Z,5.00
2022-10-22T15:22:38.238Z,4.20
2022-10-22T15:25:28.759Z,5.23
2022-10-22T15:28:09.545Z,7.77
2022-10-22T15:30:39.151Z,4.47
2022-10-22T15:33:07.673Z,4.83
2022-10-22T15:35:35.858Z,4.03
2022-10-22T15:38:41.599Z,6.00
2022-10-22T15:41:13.618Z,5.20
2022-10-22T15:43:45.519Z,5.33
2022-10-22T15:46:16.572Z,5.40
2022-10-22T15:49:23.219Z,7.37
2022-10-22T15:51:55.297Z,2.80
2022-10-22T15:54:28.617Z,6.97
2022-10-22T15:56:57.361Z,7.33
2022-10-22T16:00:06.043Z,3.37
2022-10-22T16:03:05.799Z,4.93
2022-10-22T16:05:42.861Z,4.67
2022-10-22T16:09:23.827Z,5.97
2022-10-22T16:11:58.303Z,5.80
2022-10-22T16:15:08.083Z,6.70
2022-10-22T16:18:02.741Z,6.10
2022-10-22T16:20:51.196Z,8.30
2022-10-22T16:23:20.929Z,10.03
2022-10-22T16:26:55.817Z,5.20
2022-10-22T16:29:42.668Z,10.33
2022-10-22T16:32:13.336Z,4.17
2022-10-22T16:35:23.211Z,3.93
2022-10-22T16:37:53.943Z,3.90
2022-10-22T16:40:22.412Z,5.77
2022-10-22T16:42:54.317Z,3.20
2022-10-22T16:45:47.939Z,5.83
2022-10-22T16:48:20.540Z,8.90
2022-10-22T16:51:26.080Z,7.63
2022-10-22T16:53:58.336Z,9.63
2022-10-22T16:57:08.054Z,5.87
2022-10-22T16:59:39.234Z,5.60
2022-10-22T17:02:07.415Z,9.23
2022-10-22T17:04:35.890Z,11.30
2022-10-22T17:07:43.482Z,8.30
2022-10-22T17:10:49.740Z,10.23
2022-10-22T17:14:28.817Z,8.77
2022-10-22T17:16:58.567Z,5.60
2022-10-22T17:23:23.181Z,11.07
2022-10-22T17:26:22.235Z,19.67
2022-10-22T17:32:41.331Z,8.60
2022-10-22T17:35:11.094Z,11.77
2022-10-22T17:38:18.846Z,13.87
2022-10-22T17:40:47.248Z,12.13
2022-10-22T17:44:16.753Z,14.23
2022-10-22T17:47:27.067Z,17.13
2022-10-22T17:49:59.380Z,15.93
2022-10-22T17:52:28.613Z,19.77
2022-10-22T17:55:02.115Z,14.70
2022-10-22T17:57:30.234Z,16.40
2022-10-22T18:00:29.593Z,16.03
2022-10-22T18:03:59.617Z,23.37
2022-10-22T18:06:30.220Z,16.53
2022-10-22T18:09:06.371Z,17.13
2022-10-22T18:16:20.714Z,16.97
2022-10-22T18:18:49.675Z,15.93
2022-10-22T18:22:00.623Z,17.67
2022-10-22T18:24:30.312Z,19.80
2022-10-22T18:27:37.144Z,19.70
2022-10-22T18:30:09.765Z,18.53
2022-10-22T18:33:19.115Z,18.83
2022-10-22T18:35:50.908Z,13.53
2022-10-22T18:43:13.910Z,14.57
2022-10-22T18:46:09.809Z,16.63
2022-10-22T18:48:39.360Z,15.67
2022-10-22T18:51:15.565Z,17.57
2022-10-22T18:54:24.376Z,16.77
2022-10-22T18:57:02.512Z,14.63
2022-10-22T19:00:14.231Z,16.03
2022-10-22T19:03:10.320Z,15.10
2022-10-22T19:06:00.149Z,15.47
2022-10-22T19:09:36.491Z,16.97
2022-10-22T19:12:09.470Z,14.50
2022-10-22T19:14:38.002Z,18.90
2022-10-22T19:17:07.212Z,15.83
2022-10-22T19:19:38.894Z,18.07
2022-10-22T19:22:07.106Z,13.63
2022-10-22T19:24:41.102Z,20.50
2022-10-22T19:27:09.508Z,26.53
2022-10-22T19:30:46.697Z,15.60
2022-10-22T19:33:14.811Z,19.23
2022-10-22T19:36:47.798Z,17.10
2022-10-22T19:39:18.819Z,19.93
2022-10-22T19:42:57.644Z,18.93
2022-10-22T19:45:26.132Z,17.93
2022-10-22T19:47:57.362Z,16.23
2022-10-22T19:50:26.882Z,20.97
2022-10-22T19:53:38.207Z,16.80
2022-10-22T20:00:51.218Z,20.73
2022-10-22T20:03:56.649Z,21.70
2022-10-22T20:07:34.812Z,19.47
2022-10-22T20:10:05.276Z,19.27
2022-10-22T20:12:52.763Z,21.53
2022-10-22T20:15:48.145Z,26.33
2022-10-22T20:18:39.275Z,21.97
2022-10-22T20:21:15.971Z,24.53
2022-10-22T20:23:45.060Z,27.53
2022-10-22T20:26:14.644Z,24.40
2022-10-22T20:28:42.944Z,20.60
2022-10-22T20:32:08.125Z,21.10
2022-10-22T20:34:39.546Z,31.93
2022-10-22T20:37:31.477Z,24.73
2022-10-22T20:43:54.344Z,15.87
2022-10-22T20:50:16.570Z,22.90
2022-10-22T20:52:50.831Z,25.17
2022-10-22T20:55:38.062Z,15.77
2022-10-22T20:58:08.042Z,18.03
2022-10-22T21:00:39.619Z,18.57
2022-10-22T21:06:49.988Z,14.90
2022-10-22T21:09:45.851Z,23.23
2022-10-22T21:16:52.908Z,18.90
2022-10-22T21:20:12.923Z,15.30
2022-10-22T21:22:45.947Z,13.07
2022-10-22T21:26:18.784Z,17.60
2022-10-22T21:41:35.083Z,11.17
2022-10-22T21:48:24.545Z,14.50
2022-10-22T21:55:35.377Z,11.93
2022-10-22T21:58:03.496Z,11.97
2022-10-22T22:01:35.961Z,12.80
2022-10-22T22:04:05.679Z,7.80
2022-10-22T22:07:04.323Z,21.10
2022-10-22T22:09:34.735Z,12.90
2022-10-22T22:16:06.747Z,13.10
2022-10-22T22:18:37.000Z,13.60
2022-10-22T22:25:52.486Z,14.83
2022-10-22T22:32:08.743Z,13.00
2022-10-22T22:35:04.850Z,13.37
2022-10-22T22:37:38.207Z,12.37
2022-10-22T22:40:12.597Z,12.57
2022-10-22T22:42:49.633Z,14.33
2022-10-22T22:54:01.401Z,12.90
2022-10-22T22:56:31.023Z,16.93
2022-10-22T22:59:00.731Z,15.27
2022-10-22T23:02:20.069Z,13.70
2022-10-22T23:04:57.788Z,15.27
2022-10-22T23:12:32.309Z,13.93
2022-10-22T23:15:02.389Z,19.30
2022-10-22T23:22:09.016Z,15.90
2022-10-22T23:24:37.473Z,16.23
2022-10-22T23:27:44.730Z,18.10
2022-10-22T23:30:16.455Z,18.93
2022-10-22T23:33:04.640Z,15.40
2022-10-22T23:35:35.015Z,13.20
2022-10-22T23:39:05.917Z,20.93
2022-10-22T23:41:34.708Z,12.83
2022-10-22T23:44:08.018Z,13.83
2022-10-22T23:46:57.569Z,18.27
2022-10-22T23:49:25.901Z,15.90
2022-10-22T23:51:55.134Z,19.70
2022-10-22T23:55:01.764Z,13.27
2022-10-22T23:57:31.183Z,16.70
